Time;durP1;ratioP1;P1;durP2;ratioP2;P2;SDS_P1;SDS_P2;PMS_P1;PMS_P2;Temp;Humidity;BMP_temperature;BMP_pressure;BME280_temperature;BME280_humidity;BME280_pressure;Samples;Min_cycle;Max_cycle;Signal;HPM_P1;HPM_P2
2022/03/04 00:02:07;;;;;;;18.92;11.55;;;1.60;99.90;;;;;;5060473;28;20127;-69
2022/03/04 00:04:37;;;;;;;21.77;11.10;;;1.60;99.90;;;;;;5040178;28;20483;-69
2022/03/04 00:07:04;;;;;;;23.50;11.43;;;1.60;99.90;;;;;;5041838;28;20475;-68
2022/03/04 00:09:30;;;;;;;22.80;12.48;;;1.50;99.90;;;;;;5026235;28;20069;-68
2022/03/04 00:11:56;;;;;;;20.63;12.43;;;1.40;99.90;;;;;;5043468;28;20056;-68
2022/03/04 00:14:22;;;;;;;23.23;12.15;;;1.40;99.90;;;;;;5036352;28;20463;-68
2022/03/04 00:16:48;;;;;;;26.40;13.20;;;1.40;99.90;;;;;;5045561;28;20483;-68
2022/03/04 00:19:13;;;;;;;24.33;13.23;;;1.30;99.90;;;;;;5036966;28;20045;-68
2022/03/04 00:21:42;;;;;;;19.52;12.07;;;1.20;99.90;;;;;;5046017;28;20075;-68
2022/03/04 00:24:10;;;;;;;21.05;12.55;;;1.20;99.90;;;;;;5049059;28;20659;-68
2022/03/04 00:26:37;;;;;;;20.40;10.85;;;1.30;99.90;;;;;;5044464;28;20513;-68
2022/03/04 00:29:04;;;;;;;20.30;12.68;;;1.20;99.90;;;;;;5025990;28;20047;-68
2022/03/04 00:31:29;;;;;;;19.30;12.13;;;1.20;99.90;;;;;;5034701;28;20045;-68
2022/03/04 00:33:55;;;;;;;25.17;12.20;;;1.20;99.90;;;;;;5047994;28;20117;-68
2022/03/04 00:36:22;;;;;;;21.38;11.98;;;1.20;99.90;;;;;;5044268;28;20052;-68
2022/03/04 00:38:49;;;;;;;23.77;12.10;;;1.10;99.90;;;;;;5039904;28;20037;-68
2022/03/04 00:41:21;;;;;;;22.45;12.77;;;1.10;99.90;;;;;;5041106;28;20068;-68
2022/03/04 00:43:48;;;;;;;20.60;12.48;;;1.10;99.90;;;;;;5045886;28;20062;-68
2022/03/04 00:46:14;;;;;;;25.10;12.93;;;1.10;99.90;;;;;;5054490;28;20045;-68
2022/03/04 00:48:41;;;;;;;27.60;13.07;;;1.00;99.90;;;;;;5056933;28;20044;-68
2022/03/04 00:51:07;;;;;;;30.00;13.65;;;1.00;99.90;;;;;;5064422;28;20040;-68
2022/03/04 00:53:33;;;;;;;22.38;12.50;;;1.00;99.90;;;;;;5056424;28;20110;-69
2022/03/04 00:55:59;;;;;;;25.25;12.57;;;1.00;99.90;;;;;;5036761;28;20556;-69
2022/03/04 00:58:25;;;;;;;24.08;13.35;;;1.00;99.90;;;;;;5065032;28;20082;-68
2022/03/04 01:00:51;;;;;;;23.20;12.77;;;1.00;99.90;;;;;;5034083;28;20047;-69
2022/03/04 01:03:17;;;;;;;23.42;14.05;;;1.00;99.90;;;;;;5066883;28;20534;-68
2022/03/04 01:05:42;;;;;;;24.10;13.48;;;1.10;99.90;;;;;;5066634;28;20102;-68
2022/03/04 01:08:08;;;;;;;24.10;13.27;;;1.10;99.90;;;;;;5035351;28;20059;-68
2022/03/04 01:10:34;;;;;;;25.17;12.63;;;1.10;99.90;;;;;;5047146;28;20045;-68
2022/03/04 01:13:00;;;;;;;25.48;14.20;;;1.00;99.90;;;;;;5048003;28;20037;-68
2022/03/04 01:15:26;;;;;;;28.33;13.57;;;0.90;99.90;;;;;;5051487;28;20041;-68
2022/03/04 01:17:51;;;;;;;26.55;13.02;;;0.90;99.90;;;;;;5033477;28;20676;-68
2022/03/04 01:20:17;;;;;;;26.17;13.10;;;0.90;99.90;;;;;;5069449;28;20037;-68
2022/03/04 01:22:43;;;;;;;24.17;13.63;;;0.90;99.90;;;;;;5046129;28;20113;-68
2022/03/04 01:25:09;;;;;;;25.73;14.10;;;0.90;99.90;;;;;;5031885;28;20037;-69
2022/03/04 01:27:35;;;;;;;28.33;13.85;;;0.90;99.90;;;;;;5037604;28;20044;-68
2022/03/04 01:30:02;;;;;;;22.50;13.73;;;0.80;99.90;;;;;;5062602;28;20040;-68
2022/03/04 01:32:28;;;;;;;24.95;13.45;;;0.80;99.90;;;;;;5030631;28;20094;-68
2022/03/04 01:34:54;;;;;;;20.42;12.60;;;0.80;99.90;;;;;;5029230;28;20068;-68
2022/03/04 01:37:20;;;;;;;19.95;11.10;;;0.80;99.90;;;;;;5033822;28;20036;-68
2022/03/04 01:39:45;;;;;;;24.88;13.07;;;0.70;99.90;;;;;;5046497;28;20095;-69
2022/03/04 01:42:11;;;;;;;22.00;12.68;;;0.70;99.90;;;;;;5046069;28;20087;-69
2022/03/04 01:44:37;;;;;;;27.17;13.85;;;0.80;99.90;;;;;;5040442;28;20036;-69
2022/03/04 01:47:04;;;;;;;27.15;13.30;;;0.80;99.90;;;;;;5050757;28;20083;-69
2022/03/04 01:49:31;;;;;;;24.25;12.95;;;0.80;99.90;;;;;;5047232;28;20053;-69
2022/03/04 01:51:57;;;;;;;22.65;12.98;;;0.70;99.90;;;;;;5043525;28;20053;-69
2022/03/04 01:54:22;;;;;;;21.85;12.23;;;0.70;99.90;;;;;;5063591;28;20144;-68
2022/03/04 01:56:48;;;;;;;25.70;12.25;;;0.60;99.90;;;;;;5029312;28;20060;-69
2022/03/04 01:59:14;;;;;;;25.17;12.60;;;0.60;99.90;;;;;;5043250;28;20045;-68
2022/03/04 02:01:40;;;;;;;22.63;12.73;;;0.60;99.90;;;;;;5053774;28;20515;-69
2022/03/04 02:04:05;;;;;;;24.45;12.63;;;0.60;99.90;;;;;;5047003;28;20479;-69
2022/03/04 02:06:31;;;;;;;22.17;11.95;;;0.60;99.90;;;;;;5026976;28;20084;-69
2022/03/04 02:08:57;;;;;;;23.05;13.23;;;0.70;99.90;;;;;;5030482;28;20052;-69
2022/03/04 02:11:22;;;;;;;22.67;11.27;;;0.60;99.90;;;;;;5026362;28;20049;-69
2022/03/04 02:13:48;;;;;;;22.50;12.23;;;0.60;99.90;;;;;;5035115;28;20052;-69
2022/03/04 02:16:36;;;;;;;21.10;11.38;;;0.70;99.90;;;;;;5044923;28;20047;-69
2022/03/04 02:19:03;;;;;;;24.23;11.45;;;0.70;99.90;;;;;;5042118;28;20491;-69
2022/03/04 02:21:31;;;;;;;19.50;10.95;;;0.70;99.90;;;;;;5042614;28;20486;-69
2022/03/04 02:23:57;;;;;;;20.35;10.13;;;0.60;99.90;;;;;;5044739;28;20398;-69
2022/03/04 02:26:23;;;;;;;24.70;12.40;;;0.70;99.90;;;;;;5027826;28;20044;-69
2022/03/04 02:28:50;;;;;;;19.60;10.88;;;0.60;99.90;;;;;;5029631;28;20085;-69
2022/03/04 02:31:18;;;;;;;23.60;12.52;;;0.60;99.90;;;;;;5045206;28;20103;-69
2022/03/04 02:33:45;;;;;;;25.70;11.93;;;0.60;99.90;;;;;;5047160;28;20084;-69
2022/03/04 02:36:12;;;;;;;23.48;12.13;;;0.60;99.90;;;;;;5042256;28;20083;-69
2022/03/04 02:38:38;;;;;;;27.67;12.95;;;0.50;99.90;;;;;;5043597;28;20045;-68
2022/03/04 02:41:04;;;;;;;24.52;12.18;;;0.60;99.90;;;;;;5029547;28;20063;-69
2022/03/04 02:43:30;;;;;;;21.20;11.38;;;0.50;99.90;;;;;;5041666;28;20042;-69
2022/03/04 02:45:56;;;;;;;22.13;12.25;;;0.50;99.90;;;;;;5036824;28;20064;-69
2022/03/04 02:48:22;;;;;;;20.23;10.60;;;0.50;99.90;;;;;;5062125;28;20117;-69
2022/03/04 02:50:48;;;;;;;20.02;11.88;;;0.60;99.90;;;;;;5047046;28;20171;-69
2022/03/04 02:53:13;;;;;;;19.92;10.65;;;0.60;99.90;;;;;;5041895;28;20403;-69
2022/03/04 02:55:39;;;;;;;19.23;10.50;;;0.60;99.90;;;;;;5046568;28;20419;-69
2022/03/04 02:58:05;;;;;;;20.30;9.93;;;0.60;99.90;;;;;;5044841;28;20041;-69
2022/03/04 03:00:31;;;;;;;20.90;10.43;;;0.50;99.90;;;;;;5012467;28;20045;-69
2022/03/04 03:02:57;;;;;;;23.95;11.30;;;0.50;99.90;;;;;;5046138;28;20060;-69
2022/03/04 03:05:23;;;;;;;19.50;10.82;;;0.50;99.90;;;;;;5045335;28;20523;-69
2022/03/04 03:07:49;;;;;;;19.55;11.48;;;0.50;99.90;;;;;;5029406;28;20060;-69
2022/03/04 03:10:15;;;;;;;20.65;10.25;;;0.50;99.90;;;;;;5040273;28;20041;-69
2022/03/04 03:12:41;;;;;;;23.63;10.75;;;0.50;99.90;;;;;;5042304;28;20063;-68
2022/03/04 03:15:08;;;;;;;19.98;9.07;;;0.40;99.90;;;;;;5041518;28;20069;-69
2022/03/04 03:17:34;;;;;;;21.05;9.90;;;0.40;99.90;;;;;;5038718;28;20042;-68
2022/03/04 03:20:00;;;;;;;10.27;5.03;;;0.40;99.90;;;;;;5044266;28;20582;-68
2022/03/04 03:22:26;;;;;;;13.52;7.25;;;0.40;99.90;;;;;;5041333;28;20052;-68
2022/03/04 03:24:52;;;;;;;20.83;10.75;;;0.40;99.90;;;;;;5042003;28;20053;-68
2022/03/04 03:27:18;;;;;;;12.50;5.75;;;0.30;99.90;;;;;;5032994;28;20128;-69
2022/03/04 03:29:44;;;;;;;23.20;12.15;;;0.30;99.90;;;;;;5059487;28;20152;-68
2022/03/04 03:32:12;;;;;;;18.55;9.77;;;0.30;99.90;;;;;;5041308;28;20045;-68
2022/03/04 03:34:39;;;;;;;22.80;11.38;;;0.30;99.90;;;;;;5058031;28;20094;-69
2022/03/04 03:37:06;;;;;;;24.55;10.57;;;0.20;99.90;;;;;;5041258;28;20049;-69
2022/03/04 03:39:32;;;;;;;29.30;11.57;;;0.20;99.90;;;;;;5036377;28;20115;-69
2022/03/04 03:41:59;;;;;;;17.65;8.70;;;0.20;99.90;;;;;;5039529;28;20052;-68
2022/03/04 03:44:25;;;;;;;25.48;13.60;;;0.10;99.90;;;;;;5025844;28;20540;-69
2022/03/04 03:46:50;;;;;;;17.30;8.55;;;0.10;99.90;;;;;;5024083;28;20056;-69
2022/03/04 03:49:16;;;;;;;7.88;4.65;;;0.10;99.90;;;;;;5051095;28;20408;-69
2022/03/04 03:51:42;;;;;;;26.65;11.30;;;0.00;99.90;;;;;;5045215;28;20040;-68
2022/03/04 03:54:08;;;;;;;28.10;12.95;;;0.00;99.90;;;;;;5058280;28;20061;-69
2022/03/04 03:56:33;;;;;;;30.77;14.85;;;-0.10;99.90;;;;;;5047987;28;20525;-69
2022/03/04 03:58:59;;;;;;;31.63;14.52;;;-0.10;99.90;;;;;;5040766;28;20056;-69
2022/03/04 04:01:25;;;;;;;30.20;14.43;;;-0.10;99.90;;;;;;5020797;28;20042;-69
2022/03/04 04:03:52;;;;;;;15.10;7.55;;;-0.10;99.90;;;;;;5040823;28;20104;-68
2022/03/04 04:06:18;;;;;;;22.35;8.50;;;0.00;99.90;;;;;;5031526;28;20054;-69
2022/03/04 04:08:44;;;;;;;25.08;11.68;;;0.00;99.90;;;;;;5040627;28;20052;-69
2022/03/04 04:11:10;;;;;;;20.13;10.93;;;-0.10;99.90;;;;;;5043790;28;20036;-68
2022/03/04 04:13:35;;;;;;;23.67;11.27;;;-0.10;99.90;;;;;;5027720;28;20077;-69
2022/03/04 04:16:01;;;;;;;28.80;12.50;;;-0.10;99.90;;;;;;5042208;28;20050;-69
2022/03/04 04:18:27;;;;;;;23.27;11.00;;;-0.10;99.90;;;;;;5044770;28;20037;-68
2022/03/04 04:20:52;;;;;;;10.77;4.95;;;-0.10;99.90;;;;;;5011781;28;20074;-69
2022/03/04 04:23:18;;;;;;;21.42;11.15;;;-0.10;99.90;;;;;;5055761;28;20499;-69
2022/03/04 04:25:44;;;;;;;22.67;12.18;;;-0.10;99.90;;;;;;5039701;28;20132;-69
2022/03/04 04:28:10;;;;;;;18.02;9.80;;;-0.10;99.90;;;;;;5021751;28;20482;-69
2022/03/04 04:30:35;;;;;;;21.85;11.05;;;-0.10;99.90;;;;;;5052252;28;20040;-69
2022/03/04 04:33:02;;;;;;;24.42;12.00;;;-0.10;99.90;;;;;;5031146;28;20051;-68
2022/03/04 04:35:28;;;;;;;24.08;11.90;;;-0.10;99.90;;;;;;5054054;28;20051;-69
2022/03/04 04:37:53;;;;;;;27.02;11.90;;;-0.10;99.90;;;;;;5064173;28;20406;-68
2022/03/04 04:40:20;;;;;;;22.05;12.13;;;-0.10;99.90;;;;;;5045635;28;20040;-69
2022/03/04 04:42:46;;;;;;;29.17;12.35;;;-0.10;99.90;;;;;;5058202;28;20079;-69
2022/03/04 04:45:12;;;;;;;16.50;10.23;;;-0.10;99.90;;;;;;5049558;28;20033;-69
2022/03/04 04:47:38;;;;;;;18.70;9.60;;;-0.10;99.90;;;;;;5048535;28;20032;-69
2022/03/04 04:50:04;;;;;;;15.93;8.80;;;-0.10;99.90;;;;;;5045201;28;20040;-68
2022/03/04 04:52:30;;;;;;;21.02;10.65;;;-0.10;99.90;;;;;;5051728;28;20522;-69
2022/03/04 04:54:56;;;;;;;21.13;10.65;;;-0.10;99.90;;;;;;5050716;28;20445;-69
2022/03/04 04:57:22;;;;;;;19.00;6.57;;;0.00;99.90;;;;;;5034316;28;20044;-69
2022/03/04 04:59:47;;;;;;;23.52;11.65;;;0.00;99.90;;;;;;5033220;28;20482;-68
2022/03/04 05:02:13;;;;;;;16.35;8.20;;;0.00;99.90;;;;;;5035106;28;20047;-69
2022/03/04 05:04:39;;;;;;;25.48;10.38;;;0.00;99.90;;;;;;5029326;28;20063;-69
2022/03/04 05:07:05;;;;;;;29.73;10.80;;;0.00;99.90;;;;;;5068247;28;20365;-69
2022/03/04 05:09:31;;;;;;;22.60;11.32;;;0.00;99.90;;;;;;5049690;28;20071;-68
2022/03/04 05:11:56;;;;;;;17.92;9.35;;;0.00;99.90;;;;;;5038140;28;20156;-69
2022/03/04 05:14:22;;;;;;;20.40;11.93;;;0.00;99.90;;;;;;5050387;28;20562;-69
2022/03/04 05:16:48;;;;;;;17.35;9.63;;;0.00;99.90;;;;;;5067878;28;20048;-68
2022/03/04 05:19:13;;;;;;;19.73;10.50;;;0.10;99.90;;;;;;5049138;28;20037;-69
2022/03/04 05:21:39;;;;;;;21.20;9.10;;;0.00;99.90;;;;;;5056462;28;20052;-68
2022/03/04 05:24:08;;;;;;;17.33;9.95;;;0.00;99.90;;;;;;5055411;28;20499;-68
2022/03/04 05:26:40;;;;;;;15.05;8.45;;;0.00;99.90;;;;;;5046638;28;20073;-68
2022/03/04 05:29:09;;;;;;;20.13;10.65;;;0.00;99.90;;;;;;5047021;28;20426;-69
2022/03/04 05:31:38;;;;;;;11.93;7.15;;;0.10;99.90;;;;;;5029584;28;20045;-68
2022/03/04 05:34:06;;;;;;;18.57;10.80;;;0.00;99.90;;;;;;5036841;28;20056;-68
2022/03/04 05:36:33;;;;;;;21.55;9.98;;;0.00;99.90;;;;;;5047750;28;20810;-69
2022/03/04 05:38:59;;;;;;;16.85;10.00;;;0.00;99.90;;;;;;5046853;28;20080;-68
2022/03/04 05:41:24;;;;;;;23.55;10.02;;;0.00;99.90;;;;;;5044064;28;20087;-69
2022/03/04 05:43:50;;;;;;;14.38;6.85;;;0.00;99.90;;;;;;5041659;28;20389;-68
2022/03/04 05:46:18;;;;;;;18.00;10.63;;;0.00;99.90;;;;;;5066679;28;20178;-69
2022/03/04 05:48:44;;;;;;;17.00;10.25;;;0.00;99.90;;;;;;5034241;28;20056;-69
2022/03/04 05:51:10;;;;;;;8.75;5.43;;;0.00;99.90;;;;;;5046021;28;20570;-69
2022/03/04 05:53:37;;;;;;;17.55;10.25;;;0.00;99.90;;;;;;5041618;28;20058;-68
2022/03/04 05:56:05;;;;;;;12.18;7.57;;;0.00;99.90;;;;;;5062689;28;20082;-68
2022/03/04 05:58:30;;;;;;;18.88;8.57;;;0.00;99.90;;;;;;5051181;28;20102;-68
2022/03/04 06:00:56;;;;;;;23.60;10.38;;;0.00;99.90;;;;;;5050041;28;20445;-69
2022/03/04 06:03:22;;;;;;;20.80;10.98;;;0.00;99.90;;;;;;5042968;28;20050;-69
2022/03/04 06:05:50;;;;;;;22.92;8.43;;;0.00;99.90;;;;;;5028452;28;20124;-69
2022/03/04 06:08:16;;;;;;;18.42;8.85;;;0.10;99.90;;;;;;5037885;28;20048;-69
2022/03/04 06:10:41;;;;;;;13.23;6.88;;;0.10;99.90;;;;;;5044403;28;20037;-68
2022/03/04 06:13:07;;;;;;;18.58;9.15;;;0.10;99.90;;;;;;5042533;28;20454;-69
2022/03/04 06:15:33;;;;;;;19.30;9.15;;;0.10;99.90;;;;;;5036279;28;20057;-69
2022/03/04 06:17:59;;;;;;;21.70;10.10;;;0.00;99.90;;;;;;5045305;28;20159;-68
2022/03/04 06:20:25;;;;;;;19.48;10.00;;;0.00;99.90;;;;;;5043054;28;20131;-69
2022/03/04 06:22:51;;;;;;;19.67;12.55;;;0.00;99.90;;;;;;5044016;28;20076;-69
2022/03/04 06:25:17;;;;;;;23.27;12.90;;;0.10;99.90;;;;;;5042708;28;20111;-68
2022/03/04 06:28:02;;;;;;;15.80;7.70;;;0.10;99.90;;;;;;5044144;28;20045;-69
2022/03/04 06:30:30;;;;;;;20.65;11.23;;;0.10;99.90;;;;;;5044504;28;20495;-68
2022/03/04 06:35:42;;;;;;;21.25;11.63;;;0.10;99.90;;;;;;5052353;28;20053;-68
2022/03/04 06:38:08;;;;;;;16.52;7.45;;;0.10;99.90;;;;;;5044223;28;20057;-69
2022/03/04 06:40:34;;;;;;;19.27;9.35;;;0.10;99.90;;;;;;5048372;28;20381;-69
2022/03/04 06:43:00;;;;;;;22.83;11.38;;;0.10;99.90;;;;;;5036934;28;20045;-69
2022/03/04 06:45:26;;;;;;;9.75;5.53;;;0.10;99.90;;;;;;5029911;28;20053;-68
2022/03/04 06:47:52;;;;;;;20.55;11.00;;;0.00;99.90;;;;;;5041850;28;20049;-69
2022/03/04 06:50:18;;;;;;;23.55;10.45;;;0.10;99.90;;;;;;5041334;28;20044;-69
2022/03/04 06:52:43;;;;;;;21.48;10.27;;;0.10;99.90;;;;;;5015701;28;20137;-69
2022/03/04 06:55:11;;;;;;;13.57;6.97;;;0.10;99.90;;;;;;5041630;28;20555;-69
2022/03/04 06:57:37;;;;;;;20.05;9.43;;;0.10;99.90;;;;;;5062164;28;20491;-69
2022/03/04 07:00:07;;;;;;;14.38;9.00;;;0.10;99.90;;;;;;5047950;28;20387;-69
2022/03/04 07:02:39;;;;;;;20.83;10.48;;;0.10;99.90;;;;;;5042375;28;20138;-69
2022/03/04 07:05:08;;;;;;;16.75;8.90;;;0.10;99.90;;;;;;5036173;28;20602;-69
2022/03/04 07:07:34;;;;;;;13.77;7.68;;;0.10;99.90;;;;;;5046420;28;20084;-68
2022/03/04 07:10:00;;;;;;;16.98;8.60;;;0.10;99.90;;;;;;5042517;28;20073;-69
2022/03/04 07:12:26;;;;;;;18.42;10.35;;;0.10;99.90;;;;;;5038693;28;20092;-69
2022/03/04 07:14:52;;;;;;;17.27;9.60;;;0.10;99.90;;;;;;5058948;28;20049;-69
2022/03/04 07:17:18;;;;;;;18.67;8.88;;;0.20;99.90;;;;;;5034244;28;20403;-69
2022/03/04 07:19:44;;;;;;;21.83;9.07;;;0.20;99.90;;;;;;5037849;28;20041;-69
2022/03/04 07:22:09;;;;;;;14.68;8.23;;;0.30;99.90;;;;;;5030226;28;20079;-69
2022/03/04 07:24:35;;;;;;;19.02;8.30;;;0.20;99.90;;;;;;5045219;28;20037;-68
2022/03/04 07:27:01;;;;;;;17.20;9.60;;;0.20;99.90;;;;;;5064378;28;20050;-69
2022/03/04 07:29:28;;;;;;;11.18;6.32;;;0.30;99.90;;;;;;5053198;28;20036;-69
2022/03/04 07:31:55;;;;;;;15.05;8.18;;;0.20;99.90;;;;;;5043986;28;20057;-68
2022/03/04 07:34:21;;;;;;;16.23;7.63;;;0.20;99.90;;;;;;5041746;28;20045;-69
2022/03/04 07:36:47;;;;;;;16.67;7.93;;;0.20;99.90;;;;;;5025082;28;20132;-69
2022/03/04 07:39:13;;;;;;;21.52;10.07;;;0.30;99.90;;;;;;5024269;28;20484;-68
2022/03/04 07:41:39;;;;;;;10.68;5.40;;;0.30;99.90;;;;;;5044926;28;20053;-69
2022/03/04 07:44:05;;;;;;;17.85;8.90;;;0.40;99.90;;;;;;5040654;28;20057;-69
2022/03/04 07:46:31;;;;;;;8.30;5.63;;;0.40;99.90;;;;;;5044317;28;20105;-69
2022/03/04 07:48:57;;;;;;;17.90;10.25;;;0.40;99.90;;;;;;5041796;28;20075;-69
2022/03/04 07:51:23;;;;;;;20.67;11.35;;;0.40;99.90;;;;;;5042188;28;20037;-69
2022/03/04 07:53:48;;;;;;;20.00;9.73;;;0.50;99.90;;;;;;5048754;28;20494;-68
2022/03/04 07:56:15;;;;;;;16.48;9.30;;;0.50;99.90;;;;;;5026155;28;20053;-69
2022/03/04 07:58:41;;;;;;;16.13;6.40;;;0.60;99.90;;;;;;5050975;28;20041;-69
2022/03/04 08:01:07;;;;;;;13.15;6.03;;;0.70;99.90;;;;;;5044530;28;20060;-69
2022/03/04 08:03:33;;;;;;;20.08;10.77;;;0.70;99.90;;;;;;5040445;28;20040;-69
2022/03/04 08:05:58;;;;;;;15.68;9.10;;;0.80;99.90;;;;;;5024425;28;20041;-69
2022/03/04 08:08:24;;;;;;;28.40;12.93;;;0.90;99.90;;;;;;5038815;28;20049;-69
2022/03/04 08:10:50;;;;;;;24.63;12.38;;;0.90;99.90;;;;;;5029054;28;20046;-68
2022/03/04 08:13:16;;;;;;;28.60;13.75;;;1.00;99.90;;;;;;5024101;28;20063;-69
2022/03/04 08:15:41;;;;;;;24.55;10.88;;;1.20;99.90;;;;;;4990587;28;20356;-69
2022/03/04 08:18:07;;;;;;;27.90;13.07;;;1.20;99.90;;;;;;5026344;28;20040;-69
2022/03/04 08:20:33;;;;;;;27.10;12.60;;;1.30;99.90;;;;;;5024493;28;20041;-69
2022/03/04 08:22:59;;;;;;;26.25;12.02;;;1.30;99.90;;;;;;5025556;28;20043;-69
2022/03/04 08:25:25;;;;;;;25.75;15.43;;;1.30;99.90;;;;;;5045980;28;20055;-69
2022/03/04 08:27:52;;;;;;;25.27;12.25;;;1.40;99.90;;;;;;5038897;28;20072;-69
2022/03/04 08:30:18;;;;;;;23.10;11.80;;;1.50;99.90;;;;;;5045524;28;20052;-69
2022/03/04 08:32:44;;;;;;;20.15;11.10;;;1.60;99.90;;;;;;5027285;28;20045;-69
2022/03/04 08:35:10;;;;;;;29.58;13.88;;;1.70;99.90;;;;;;5027238;28;20094;-69
2022/03/04 08:37:37;;;;;;;21.70;11.68;;;1.70;99.90;;;;;;5034470;28;20048;-69
2022/03/04 08:40:04;;;;;;;23.27;11.88;;;1.90;99.90;;;;;;5026442;28;20050;-69
2022/03/04 08:42:30;;;;;;;22.13;11.88;;;1.90;99.90;;;;;;5027691;28;20107;-69
2022/03/04 08:44:56;;;;;;;35.05;14.90;;;1.90;99.90;;;;;;5026023;28;20049;-69
2022/03/04 08:47:22;;;;;;;17.20;8.38;;;1.80;99.90;;;;;;5031395;28;20041;-69
2022/03/04 08:49:48;;;;;;;28.70;15.43;;;1.80;99.90;;;;;;5022975;28;20048;-70
2022/03/04 08:52:14;;;;;;;25.30;14.10;;;1.90;99.90;;;;;;5027435;28;20388;-69
2022/03/04 08:54:40;;;;;;;23.63;13.07;;;1.90;99.90;;;;;;5037059;28;20052;-69
2022/03/04 08:57:06;;;;;;;16.30;8.88;;;2.00;99.90;;;;;;5036092;28;20052;-69
2022/03/04 08:59:32;;;;;;;24.77;12.30;;;2.10;99.90;;;;;;5045685;28;20558;-69
2022/03/04 09:01:58;;;;;;;23.90;12.95;;;2.20;99.90;;;;;;5034510;28;20124;-69
2022/03/04 09:04:24;;;;;;;23.02;13.73;;;2.40;99.90;;;;;;5028838;28;20127;-69
2022/03/04 09:06:50;;;;;;;20.85;10.65;;;2.50;99.90;;;;;;5036302;28;20045;-69
2022/03/04 09:09:16;;;;;;;25.35;13.25;;;2.50;99.90;;;;;;5017973;28;20128;-69
2022/03/04 09:11:43;;;;;;;23.27;13.65;;;2.60;99.90;;;;;;5027980;28;20111;-70
2022/03/04 09:14:09;;;;;;;18.45;11.20;;;2.70;99.90;;;;;;5051621;28;20500;-69
2022/03/04 09:16:35;;;;;;;26.70;13.80;;;2.70;99.90;;;;;;5016261;28;20526;-69
2022/03/04 09:19:01;;;;;;;21.55;13.05;;;2.70;99.90;;;;;;5034629;28;20043;-69
2022/03/04 09:21:26;;;;;;;21.08;12.52;;;2.70;99.90;;;;;;5036674;28;20450;-69
2022/03/04 09:23:53;;;;;;;20.83;12.95;;;2.80;99.90;;;;;;5020382;28;20386;-69
2022/03/04 09:26:19;;;;;;;23.38;11.95;;;2.80;99.90;;;;;;5039764;28;20041;-69
2022/03/04 09:28:45;;;;;;;20.08;10.65;;;2.90;99.90;;;;;;5029745;28;20055;-69
2022/03/04 09:31:11;;;;;;;23.48;12.02;;;2.90;99.90;;;;;;5013146;28;20395;-69
2022/03/04 09:33:37;;;;;;;20.20;11.77;;;3.00;99.90;;;;;;5028943;28;20395;-69
2022/03/04 09:36:06;;;;;;;22.10;12.55;;;3.10;99.90;;;;;;5028362;28;20044;-69
2022/03/04 09:38:31;;;;;;;19.42;11.95;;;3.20;99.90;;;;;;5028474;28;20064;-70
2022/03/04 09:40:59;;;;;;;17.50;10.65;;;3.40;99.90;;;;;;5011515;28;20517;-69
2022/03/04 09:43:26;;;;;;;12.95;6.38;;;3.40;99.90;;;;;;5029899;28;20098;-70
2022/03/04 09:45:52;;;;;;;18.90;11.48;;;3.30;99.90;;;;;;5026439;28;20519;-69
2022/03/04 09:48:18;;;;;;;24.33;12.00;;;3.50;99.90;;;;;;5040929;28;20423;-69
2022/03/04 09:50:46;;;;;;;19.33;11.13;;;3.70;99.90;;;;;;5017262;28;20488;-69
2022/03/04 09:53:13;;;;;;;25.08;13.57;;;3.70;99.90;;;;;;5028560;28;20065;-70
2022/03/04 09:55:40;;;;;;;20.75;10.55;;;3.80;99.90;;;;;;5033198;28;20037;-69
2022/03/04 09:58:17;;;;;;;23.25;14.18;;;3.80;99.90;;;;;;5031445;28;20151;-70
2022/03/04 10:00:44;;;;;;;19.27;11.82;;;3.90;99.90;;;;;;5031476;28;20041;-70
2022/03/04 10:03:28;;;;;;;23.17;11.25;;;4.00;99.90;;;;;;5047411;28;20040;-70
2022/03/04 10:05:56;;;;;;;19.45;10.07;;;4.10;99.90;;;;;;5055208;28;20044;-70
2022/03/04 10:08:23;;;;;;;23.20;12.15;;;4.00;99.90;;;;;;5049423;28;20127;-69
2022/03/04 10:10:50;;;;;;;21.65;11.60;;;4.00;99.90;;;;;;5045925;28;20535;-70
2022/03/04 10:13:16;;;;;;;14.98;7.63;;;4.10;99.90;;;;;;5023524;28;20089;-70
2022/03/04 10:15:54;;;;;;;18.02;11.20;;;4.00;99.90;;;;;;5078224;28;20051;-69
2022/03/04 10:18:29;;;;;;;14.60;7.53;;;4.10;99.90;;;;;;5059644;28;20052;-69
2022/03/04 10:20:55;;;;;;;20.00;10.77;;;4.20;99.90;;;;;;5066989;28;20438;-69
2022/03/04 10:23:23;;;;;;;16.15;8.75;;;4.20;99.90;;;;;;5055159;28;20036;-69
2022/03/04 10:25:52;;;;;;;14.13;8.50;;;4.30;99.90;;;;;;5056505;28;20123;-70
2022/03/04 10:28:19;;;;;;;13.32;7.88;;;4.30;99.90;;;;;;5033918;28;20103;-71
2022/03/04 10:30:51;;;;;;;17.58;8.70;;;4.30;99.90;;;;;;5048895;28;20407;-71
2022/03/04 10:33:20;;;;;;;20.25;10.48;;;4.40;99.90;;;;;;5045731;28;20109;-72
2022/03/04 10:35:50;;;;;;;14.45;7.70;;;4.40;99.90;;;;;;5047338;28;20610;-71
2022/03/04 10:38:24;;;;;;;16.15;8.73;;;4.50;99.90;;;;;;5065137;28;20132;-71
2022/03/04 10:40:51;;;;;;;20.52;12.00;;;4.40;99.90;;;;;;5047607;28;20052;-72
2022/03/04 10:43:23;;;;;;;11.73;8.15;;;4.70;99.90;;;;;;5052011;28;20052;-71
2022/03/04 10:46:03;;;;;;;18.27;11.25;;;4.80;99.90;;;;;;5056440;28;20087;-73
2022/03/04 10:48:29;;;;;;;19.33;9.85;;;4.90;99.90;;;;;;5042501;28;20103;-72
2022/03/04 10:50:57;;;;;;;13.10;8.40;;;5.00;99.90;;;;;;5064867;28;20482;-71
2022/03/04 10:53:30;;;;;;;13.52;8.70;;;4.90;99.90;;;;;;5043742;28;20064;-71
2022/03/04 10:56:04;;;;;;;15.18;9.98;;;4.90;99.90;;;;;;5033281;28;20076;-71
2022/03/04 10:58:38;;;;;;;16.58;9.43;;;5.00;99.90;;;;;;5040746;28;20102;-72
2022/03/04 11:01:09;;;;;;;21.55;11.40;;;5.00;99.90;;;;;;5023452;28;20067;-72
2022/03/04 11:03:36;;;;;;;20.95;12.07;;;5.20;99.90;;;;;;5028848;28;20045;-73
2022/03/04 11:06:07;;;;;;;21.48;11.63;;;5.20;99.90;;;;;;5048653;28;20102;-71
2022/03/04 11:08:32;;;;;;;;;;;5.30;99.90;;;;;;5053599;28;20501;-71
2022/03/04 11:10:59;;;;;;;15.80;9.18;;;5.60;99.90;;;;;;5043977;28;19921;-71
2022/03/04 11:13:26;;;;;;;15.63;8.52;;;5.40;99.90;;;;;;5026445;28;20492;-71
2022/03/04 11:15:53;;;;;;;15.63;6.45;;;5.30;99.90;;;;;;5037985;28;20052;-71
2022/03/04 11:18:21;;;;;;;14.35;8.30;;;5.30;99.90;;;;;;5044156;28;20107;-72
2022/03/04 11:20:55;;;;;;;20.23;12.25;;;5.10;99.90;;;;;;5026244;28;20111;-72
2022/03/04 11:23:29;;;;;;;18.48;10.60;;;5.00;99.90;;;;;;5044731;28;20080;-71
2022/03/04 11:26:04;;;;;;;19.63;11.10;;;5.10;99.90;;;;;;5026451;28;20129;-71
2022/03/04 11:28:41;;;;;;;17.55;11.32;;;5.30;99.90;;;;;;5023165;28;20154;-71
2022/03/04 11:31:12;;;;;;;20.85;10.95;;;5.40;99.90;;;;;;5041976;28;20503;-71
2022/03/04 11:33:52;;;;;;;12.38;7.07;;;5.40;99.90;;;;;;5044300;28;20120;-71
2022/03/04 11:36:29;;;;;;;14.02;8.70;;;5.50;99.90;;;;;;5035637;28;20049;-71
2022/03/04 11:39:13;;;;;;;18.33;11.02;;;5.50;99.90;;;;;;5041180;28;20044;-71
2022/03/04 11:42:03;;;;;;;17.45;10.60;;;5.60;99.90;;;;;;5039640;28;20087;-71
2022/03/04 11:44:29;;;;;;;14.82;3.80;;;5.50;99.90;;;;;;5040534;28;20142;-71
2022/03/04 11:46:55;;;;;;;8.95;4.65;;;5.50;99.90;;;;;;5040744;28;20476;-71
2022/03/04 11:49:30;;;;;;;17.48;11.27;;;5.50;99.90;;;;;;5043476;28;20049;-71
2022/03/04 11:52:11;;;;;;;19.25;10.80;;;5.50;99.90;;;;;;5044258;28;20430;-72
2022/03/04 11:54:49;;;;;;;21.17;11.48;;;5.50;99.90;;;;;;5041183;28;20384;-70
2022/03/04 11:57:18;;;;;;;17.02;11.10;;;5.60;99.90;;;;;;5042859;28;20132;-71
2022/03/04 11:59:53;;;;;;;18.98;10.43;;;5.70;99.90;;;;;;5023320;28;20049;-71
2022/03/04 12:02:42;;;;;;;18.35;10.18;;;5.80;99.90;;;;;;5044757;28;20075;-71
2022/03/04 12:05:14;;;;;;;16.77;10.05;;;5.80;99.90;;;;;;5036029;28;20522;-71
2022/03/04 12:07:49;;;;;;;21.33;10.27;;;5.70;99.90;;;;;;5043240;28;20067;-71
2022/03/04 12:10:16;;;;;;;18.25;9.23;;;5.80;99.90;;;;;;5039570;28;20575;-71
2022/03/04 12:13:05;;;;;;;11.77;7.40;;;5.90;99.90;;;;;;5026927;28;20045;-71
2022/03/04 12:15:40;;;;;;;13.20;8.45;;;5.90;99.90;;;;;;5041758;28;20423;-72
2022/03/04 12:18:27;;;;;;;24.98;7.00;;;6.10;99.90;;;;;;5041128;28;20046;-71
2022/03/04 12:21:20;;;;;;;16.83;8.82;;;6.10;99.90;;;;;;5035018;28;20057;-71
2022/03/04 12:23:49;;;;;;;10.15;7.15;;;6.00;99.90;;;;;;5015929;28;20054;-71
2022/03/04 12:26:26;;;;;;;14.55;6.43;;;6.10;99.90;;;;;;5042249;28;20048;-71
2022/03/04 12:29:01;;;;;;;15.05;8.43;;;6.20;99.90;;;;;;5051311;28;20116;-72
2022/03/04 12:31:29;;;;;;;15.25;8.68;;;6.20;99.90;;;;;;5039768;28;20048;-71
2022/03/04 12:33:57;;;;;;;7.55;5.28;;;6.30;99.90;;;;;;5046409;28;20131;-72
2022/03/04 12:36:26;;;;;;;14.68;9.13;;;6.20;99.90;;;;;;5043795;28;20088;-72
2022/03/04 12:38:55;;;;;;;21.73;7.75;;;6.20;99.90;;;;;;5040319;28;20543;-71
2022/03/04 12:41:24;;;;;;;14.73;8.50;;;6.20;99.90;;;;;;5017147;28;20123;-71
2022/03/04 12:43:57;;;;;;;12.00;7.93;;;6.30;99.90;;;;;;5051462;28;20470;-71
2022/03/04 12:46:25;;;;;;;12.18;7.32;;;6.40;99.90;;;;;;5055691;28;20044;-72